^^
Datos históricos de la estación: Murcia-Puente Tocinos
Diario Informe para Mayo 06, 2021 Unidades:  Ambas    Ingés   Métrico
Diario Semanal Mensual Anual
  Máxima: Mínima: Promedio:
Temperatura: 81.1 °F /  27.3 °C 56.1 °F /  13.4 °C 68.2 °F /  20.1 °C
Punto de rocio: 59 °F /  15 °C 52.3 °F /  11.3 °C 56.1 °F /  13.4 °C
Humedad: 93% 40.2% 69%
Velocidad viento: 12.5mph /  20.1km/h - 4.7mph /  7.5km/h
Racha viento: 21.3mph /  34.3km/h - -
Viento- - SE
Presión: 30 in /  1016.2 hPa 29.9 in /  1012.7 hPa -
Precipitación: 0 in /  0.0 mm    
 
 
Tabla de datos para Mayo 06, 2021
Hora Temperatura Punto de rocio Presión Viento Velocidad viento Racha viento Humedad Intensidad lluvia(por hora) Nubes
00:59 62.2 °F /  16.8 °C 56.3 °F /  13.5 °C 30in /  1015.6hPa ENE 1.4mph /  2.3km/h 2.3mph /  3.7km/h 81% 0in /  0.0mm
01:04 62.2 °F /  16.8 °C 56.3 °F /  13.5 °C 30in /  1015.6hPa NE 1.4mph /  2.3km/h 3.5mph /  5.6km/h 81% 0in /  0.0mm
01:09 62.1 °F /  16.7 °C 56.3 °F /  13.5 °C 30in /  1015.6hPa NE 1.7mph /  2.8km/h 4.6mph /  7.4km/h 81% 0in /  0.0mm
01:14 62.1 °F /  16.7 °C 56.3 °F /  13.5 °C 30in /  1015.6hPa NNO 2mph /  3.2km/h 5mph /  8km/h 81.5% 0in /  0.0mm
01:19 62.1 °F /  16.7 °C 56.3 °F /  13.5 °C 30in /  1015.6hPa NNE 1.9mph /  3.1km/h 4.6mph /  7.4km/h 81.1% 0in /  0.0mm
01:24 61.9 °F /  16.6 °C 56.3 °F /  13.5 °C 30in /  1015.6hPa NE 1.8mph /  2.9km/h 5mph /  8km/h 82% 0in /  0.0mm
01:29 61.9 °F /  16.6 °C 56.3 °F /  13.5 °C 30in /  1015.6hPa NNE 1.9mph /  3.1km/h 4.6mph /  7.4km/h 82.3% 0in /  0.0mm
01:34 61.7 °F /  16.5 °C 56.5 °F /  13.6 °C 30in /  1015.6hPa North 2mph /  3.2km/h 5mph /  8km/h 83% 0in /  0.0mm
01:39 61.5 °F /  16.4 °C 56.3 °F /  13.5 °C 30in /  1015.6hPa NNE 2.2mph /  3.6km/h 4.6mph /  7.4km/h 83% 0in /  0.0mm
01:44 61.5 °F /  16.4 °C 56.3 °F /  13.5 °C 30in /  1015.6hPa NNE 2.4mph /  3.9km/h 5mph /  8km/h 83% 0in /  0.0mm
01:49 61.3 °F /  16.3 °C 56.5 °F /  13.6 °C 30in /  1015.5hPa NE 2.4mph /  3.9km/h 5.2mph /  8.4km/h 83.7% 0in /  0.0mm
01:54 61.3 °F /  16.3 °C 56.5 °F /  13.6 °C 30in /  1015.5hPa NE 2.4mph /  3.9km/h 5mph /  8km/h 84% 0in /  0.0mm
01:59 61.3 °F /  16.3 °C 56.5 °F /  13.6 °C 30in /  1015.5hPa NNE 2.7mph /  4.4km/h 5.2mph /  8.4km/h 84% 0in /  0.0mm
02:04 61.2 °F /  16.2 °C 56.3 °F /  13.5 °C 30in /  1015.5hPa NE 2.9mph /  4.6km/h 5mph /  8km/h 84% 0in /  0.0mm
02:09 61.2 °F /  16.2 °C 56.3 °F /  13.5 °C 30in /  1015.5hPa NE 3mph /  4.8km/h 5.9mph /  9.5km/h 84% 0in /  0.0mm
02:14 61.2 °F /  16.2 °C 56.3 °F /  13.5 °C 30in /  1015.6hPa NNE 3.1mph /  5km/h 6mph /  9.7km/h 84% 0in /  0.0mm
02:19 61 °F /  16.1 °C 56.3 °F /  13.5 °C 30in /  1015.6hPa NNE 3mph /  4.8km/h 5mph /  8km/h 84.2% 0in /  0.0mm
02:24 61 °F /  16.1 °C 56.3 °F /  13.5 °C 30in /  1015.6hPa NNE 2.9mph /  4.6km/h 6.2mph /  10km/h 85% 0in /  0.0mm
02:29 60.6 °F /  15.9 °C 56.1 °F /  13.4 °C 30in /  1015.6hPa NE 3mph /  4.8km/h 6mph /  9.7km/h 85% 0in /  0.0mm
02:34 60.6 °F /  15.9 °C 56.1 °F /  13.4 °C 30in /  1015.5hPa NNE 3.1mph /  5km/h 6mph /  9.7km/h 85% 0in /  0.0mm
02:39 60.4 °F /  15.8 °C 55.9 °F /  13.3 °C 30in /  1015.5hPa NNE 3.6mph /  5.8km/h 6.4mph /  10.3km/h 85% 0in /  0.0mm
02:44 60.3 °F /  15.7 °C 55.9 °F /  13.3 °C 30in /  1015.5hPa NNE 4mph /  6.5km/h 7mph /  11.3km/h 85.6% 0in /  0.0mm
02:49 60.3 °F /  15.7 °C 55.9 °F /  13.3 °C 30in /  1015.4hPa North 4mph /  6.5km/h 7mph /  11.3km/h 86% 0in /  0.0mm
02:54 59.9 °F /  15.5 °C 55.8 °F /  13.2 °C 30in /  1015.4hPa North 4mph /  6.5km/h 5.2mph /  8.4km/h 86% 0in /  0.0mm
02:59 59.7 °F /  15.4 °C 55.8 °F /  13.2 °C 30in /  1015.4hPa North 3.8mph /  6.1km/h 5mph /  8km/h 86.6% 0in /  0.0mm
03:04 59.7 °F /  15.4 °C 55.8 °F /  13.2 °C 30in /  1015.3hPa North 3.6mph /  5.8km/h 5mph /  8km/h 87% 0in /  0.0mm
03:09 59.5 °F /  15.3 °C 55.8 °F /  13.2 °C 30in /  1015.3hPa North 2.6mph /  4.2km/h 2mph /  3.2km/h 87% 0in /  0.0mm
03:14 59.7 °F /  15.4 °C 56.1 °F /  13.4 °C 30in /  1015.3hPa NNO 1.8mph /  2.9km/h 2.9mph /  4.7km/h 87.9% 0in /  0.0mm
03:19 59.7 °F /  15.4 °C 56.1 °F /  13.4 °C 30in /  1015.3hPa NNO 0.7mph /  1.2km/h 3mph /  4.8km/h 88% 0in /  0.0mm
03:24 59.7 °F /  15.4 °C 56.1 °F /  13.4 °C 30in /  1015.3hPa Calm   2mph /  3.2km/h 88% 0in /  0.0mm
03:29 59.7 °F /  15.4 °C 56.1 °F /  13.4 °C 30in /  1015.3hPa Calm   2.9mph /  4.7km/h 88% 0in /  0.0mm
03:34 59.7 °F /  15.4 °C 56.1 °F /  13.4 °C 30in /  1015.3hPa Calm   3mph /  4.8km/h 88% 0in /  0.0mm
03:39 59.7 °F /  15.4 °C 56.1 °F /  13.4 °C 30in /  1015.3hPa NNO 0.8mph /  1.3km/h 3mph /  4.8km/h 88% 0in /  0.0mm
03:44 59.7 °F /  15.4 °C 56.5 °F /  13.6 °C 30in /  1015.3hPa NNO 1.4mph /  2.3km/h 2.9mph /  4.7km/h 88.9% 0in /  0.0mm
03:49 59.9 °F /  15.5 °C 56.7 °F /  13.7 °C 30in /  1015.3hPa NNO 1.4mph /  2.2km/h 3.5mph /  5.6km/h 89% 0in /  0.0mm
03:54 59.7 °F /  15.4 °C 56.5 °F /  13.6 °C 30in /  1015.3hPa North 1.4mph /  2.2km/h 3.6mph /  5.8km/h 89% 0in /  0.0mm
03:59 59.7 °F /  15.4 °C 56.5 °F /  13.6 °C 30in /  1015.3hPa NNE 1.8mph /  2.9km/h 4.6mph /  7.4km/h 89% 0in /  0.0mm
04:04 59.5 °F /  15.3 °C 56.3 °F /  13.5 °C 30in /  1015.1hPa North 2mph /  3.2km/h 5mph /  8km/h 89% 0in /  0.0mm
04:09 59.5 °F /  15.3 °C 56.1 °F /  13.4 °C 30in /  1015.1hPa NE 2.5mph /  4.1km/h 5.9mph /  9.5km/h 89% 0in /  0.0mm
04:14 59.4 °F /  15.2 °C 56.1 °F /  13.4 °C 30in /  1015.1hPa NNE 2.9mph /  4.7km/h 6mph /  9.7km/h 89.1% 0in /  0.0mm
04:19 59.2 °F /  15.1 °C 56.1 °F /  13.4 °C 30in /  1015.1hPa NE 3.5mph /  5.7km/h 6.2mph /  10km/h 90% 0in /  0.0mm
04:24 58.8 °F /  14.9 °C 55.9 °F /  13.3 °C 30in /  1015.1hPa NNE 4mph /  6.5km/h 6mph /  9.7km/h 90% 0in /  0.0mm
04:29 58.6 °F /  14.8 °C 55.8 °F /  13.2 °C 30in /  1015.1hPa NE 4mph /  6.5km/h 6.9mph /  11.1km/h 90% 0in /  0.0mm
04:34 58.5 °F /  14.7 °C 55.6 °F /  13.1 °C 30in /  1015.0hPa NNE 4mph /  6.5km/h 7mph /  11.3km/h 90% 0in /  0.0mm
04:39 58.3 °F /  14.6 °C 55.6 °F /  13.1 °C 30in /  1015.0hPa NE 4mph /  6.5km/h 6mph /  9.7km/h 90.5% 0in /  0.0mm
04:44 58.3 °F /  14.6 °C 55.8 °F /  13.2 °C 30in /  1015.0hPa NE 4mph /  6.5km/h 5.2mph /  8.4km/h 91% 0in /  0.0mm
04:49 58.3 °F /  14.6 °C 55.8 °F /  13.2 °C 30in /  1015.0hPa NNE 3.4mph /  5.4km/h 5.9mph /  9.5km/h 91% 0in /  0.0mm
04:54 58.3 °F /  14.6 °C 55.8 °F /  13.2 °C 30in /  1015.0hPa NE 2.9mph /  4.7km/h 6mph /  9.7km/h 91% 0in /  0.0mm
04:59 58.3 °F /  14.6 °C 55.6 °F /  13.1 °C 30in /  1015.0hPa NNE 3mph /  4.9km/h 6mph /  9.7km/h 91% 0in /  0.0mm
05:04 57.9 °F /  14.4 °C 55.4 °F /  13 °C 30in /  1015.0hPa NE 3.1mph /  5km/h 6mph /  9.7km/h 91% 0in /  0.0mm
05:09 57.7 °F /  14.3 °C 55 °F /  12.8 °C 30in /  1015.0hPa North 3.1mph /  5km/h 4.6mph /  7.4km/h 90.3% 0in /  0.0mm
05:14 57.6 °F /  14.2 °C 54.7 °F /  12.6 °C 30in /  1015.1hPa NO 3.1mph /  5km/h 5mph /  8km/h 90% 0in /  0.0mm
05:19 57.4 °F /  14.1 °C 54.5 °F /  12.5 °C 30in /  1015.1hPa NO 2.7mph /  4.4km/h 5.2mph /  8.4km/h 90% 0in /  0.0mm
05:24 57.4 °F /  14.1 °C 54.7 °F /  12.6 °C 30in /  1015.1hPa NO 2.4mph /  3.9km/h 5mph /  8km/h 90.9% 0in /  0.0mm
05:29 57.4 °F /  14.1 °C 54.7 °F /  12.6 °C 30in /  1015.1hPa NNO 2.7mph /  4.3km/h 5mph /  8km/h 91% 0in /  0.0mm
05:34 57.2 °F /  14 °C 54.3 °F /  12.4 °C 30in /  1015.1hPa North 2.9mph /  4.7km/h 5mph /  8km/h 90.3% 0in /  0.0mm
05:39 56.8 °F /  13.8 °C 54 °F /  12.2 °C 30in /  1015.1hPa NE 2.3mph /  3.7km/h 4mph /  6.4km/h 90% 0in /  0.0mm
05:44 56.7 °F /  13.7 °C 53.6 °F /  12 °C 30in /  1015.3hPa NNE 1.8mph /  2.9km/h 3.6mph /  5.8km/h 89.5% 0in /  0.0mm
05:49 56.5 °F /  13.6 °C 53.2 °F /  11.8 °C 30in /  1015.3hPa NNE 1.8mph /  2.9km/h 5.4mph /  8.7km/h 89% 0in /  0.0mm
05:54 56.1 °F /  13.4 °C 52.9 °F /  11.6 °C 30in /  1015.3hPa North 1.8mph /  2.9km/h 6mph /  9.7km/h 89% 0in /  0.0mm
05:59 56.1 °F /  13.4 °C 52.9 °F /  11.6 °C 30in /  1015.4hPa NNO 2.2mph /  3.5km/h 2.9mph /  4.7km/h 89% 0in /  0.0mm
06:04 56.1 °F /  13.4 °C 52.9 °F /  11.6 °C 30in /  1015.4hPa NNO 2.4mph /  3.9km/h 3mph /  4.8km/h 89% 0in /  0.0mm
06:09 56.1 °F /  13.4 °C 52.9 °F /  11.6 °C 30in /  1015.4hPa NNO 1.8mph /  2.9km/h 3mph /  4.8km/h 89% 0in /  0.0mm
06:14 56.1 °F /  13.4 °C 53.1 °F /  11.7 °C 30in /  1015.5hPa North 1.4mph /  2.2km/h 3.6mph /  5.8km/h 89.3% 0in /  0.0mm
06:19 56.5 °F /  13.6 °C 53.6 °F /  12 °C 30in /  1015.5hPa NNE 1.7mph /  2.8km/h 4mph /  6.4km/h 90% 0in /  0.0mm
06:24 56.8 °F /  13.8 °C 54.1 °F /  12.3 °C 30in /  1015.5hPa NE 2mph /  3.2km/h 4mph /  6.4km/h 90.8% 0in /  0.0mm
06:29 57 °F /  13.9 °C 54.5 °F /  12.5 °C 30in /  1015.7hPa Este 1.9mph /  3km/h 4.6mph /  7.4km/h 91% 0in /  0.0mm
06:34 57.4 °F /  14.1 °C 54.7 °F /  12.6 °C 30in /  1015.7hPa NNE 1.8mph /  2.9km/h 5mph /  8km/h 91% 0in /  0.0mm
06:39 57.4 °F /  14.1 °C 54.9 °F /  12.7 °C 30in /  1015.7hPa North 1.8mph /  2.9km/h 5mph /  8km/h 91% 0in /  0.0mm
06:44 57.4 °F /  14.1 °C 54.9 °F /  12.7 °C 30in /  1015.7hPa NO 1.8mph /  2.9km/h 3.5mph /  5.6km/h 91% 0in /  0.0mm
06:49 57.4 °F /  14.1 °C 55 °F /  12.8 °C 30in /  1015.7hPa NO 0.7mph /  1.2km/h 3mph /  4.8km/h 91.8% 0in /  0.0mm
06:54 57.4 °F /  14.1 °C 55.2 °F /  12.9 °C 30in /  1015.7hPa Calm   3.5mph /  5.6km/h 92% 0in /  0.0mm
06:59 57.6 °F /  14.2 °C 55.2 °F /  12.9 °C 30in /  1015.7hPa ONO 0.9mph /  1.4km/h 3.5mph /  5.6km/h 92% 0in /  0.0mm
07:04 57.6 °F /  14.2 °C 55.2 °F /  12.9 °C 30in /  1015.7hPa Oeste 1.4mph /  2.2km/h 3.6mph /  5.8km/h 92% 0in /  0.0mm
07:09 57.6 °F /  14.2 °C 55.2 °F /  12.9 °C 30in /  1015.7hPa NO 1.4mph /  2.2km/h 4mph /  6.4km/h 92% 0in /  0.0mm
07:14 57.6 °F /  14.2 °C 55.2 °F /  12.9 °C 30in /  1015.7hPa NNO 1.4mph /  2.2km/h 4.6mph /  7.4km/h 92% 0in /  0.0mm
07:19 57.6 °F /  14.2 °C 55.2 °F /  12.9 °C 30in /  1015.7hPa NO 2mph /  3.2km/h 5mph /  8km/h 92% 0in /  0.0mm
07:24 57.6 °F /  14.2 °C 55.6 °F /  13.1 °C 30in /  1015.7hPa NO 2.4mph /  3.9km/h 5mph /  8km/h 92.9% 0in /  0.0mm
07:29 57.6 °F /  14.2 °C 55.6 °F /  13.1 °C 30in /  1015.9hPa NO 2.1mph /  3.3km/h 5.8mph /  9.3km/h 93% 0in /  0.0mm
07:34 57.7 °F /  14.3 °C 55.8 °F /  13.2 °C 30in /  1015.9hPa ONO 1.8mph /  2.9km/h 7.4mph /  11.9km/h 93% 0in /  0.0mm
07:39 57.7 °F /  14.3 °C 55.8 °F /  13.2 °C 30in /  1015.9hPa NNO 2.5mph /  4km/h 8.1mph /  13km/h 93% 0in /  0.0mm
07:44 57.7 °F /  14.3 °C 55.8 °F /  13.2 °C 30in /  1015.9hPa NNO 3.1mph /  5km/h 8mph /  12.9km/h 93% 0in /  0.0mm
07:49 57.7 °F /  14.3 °C 55.8 °F /  13.2 °C 30in /  1015.9hPa ONO 2.5mph /  4km/h 5mph /  8km/h 93% 0in /  0.0mm
07:54 57.7 °F /  14.3 °C 55.8 °F /  13.2 °C 30in /  1015.9hPa ONO 2mph /  3.2km/h 6.2mph /  10km/h 93% 0in /  0.0mm
07:59 57.7 °F /  14.3 °C 55.8 °F /  13.2 °C 30in /  1016.0hPa ONO 2.5mph /  4.1km/h 6mph /  9.7km/h 93% 0in /  0.0mm
08:04 57.9 °F /  14.4 °C 55.9 °F /  13.3 °C 30in /  1016.0hPa NO 2.9mph /  4.6km/h 6mph /  9.7km/h 93% 0in /  0.0mm
08:09 57.9 °F /  14.4 °C 55.9 °F /  13.3 °C 30in /  1016.0hPa OSO 2.6mph /  4.2km/h 5mph /  8km/h 93% 0in /  0.0mm
08:14 58.1 °F /  14.5 °C 56.1 °F /  13.4 °C 30in /  1016.0hPa SSO 2.4mph /  3.9km/h 5.2mph /  8.4km/h 93% 0in /  0.0mm
08:19 57.9 °F /  14.4 °C 55.9 °F /  13.3 °C 30in /  1016.0hPa ESE 2.2mph /  3.5km/h 5mph /  8km/h 93% 0in /  0.0mm
08:24 57.9 °F /  14.4 °C 55.9 °F /  13.3 °C 30in /  1016.0hPa Este 2mph /  3.2km/h 5mph /  8km/h 93% 0in /  0.0mm
08:29 58.3 °F /  14.6 °C 56.3 °F /  13.5 °C 30in /  1016.0hPa ESE 2.2mph /  3.6km/h 5mph /  8km/h 93% 0in /  0.0mm
08:34 58.3 °F /  14.6 °C 56.3 °F /  13.5 °C 30in /  1016.0hPa ESE 2.4mph /  3.9km/h 6.4mph /  10.3km/h 93% 0in /  0.0mm
08:39 58.5 °F /  14.7 °C 56.3 °F /  13.5 °C 30in /  1016.0hPa ESE 3.1mph /  5km/h 7mph /  11.3km/h 93% 0in /  0.0mm
08:44 58.5 °F /  14.7 °C 56.3 °F /  13.5 °C 30in /  1016.0hPa Sur 3.6mph /  5.8km/h 5.4mph /  8.7km/h 92.6% 0in /  0.0mm
08:49 58.5 °F /  14.7 °C 56.3 °F /  13.5 °C 30in /  1016.0hPa SSO 3.2mph /  5.1km/h 6mph /  9.7km/h 92.7% 0in /  0.0mm
08:54 58.6 °F /  14.8 °C 56.5 °F /  13.6 °C 30in /  1016.0hPa SO 2.9mph /  4.7km/h 5.8mph /  9.3km/h 92.6% 0in /  0.0mm
08:59 59 °F /  15 °C 56.7 °F /  13.7 °C 30in /  1016.1hPa SO 2.9mph /  4.6km/h 6.2mph /  10km/h 92.2% 0in /  0.0mm
09:04 59.2 °F /  15.1 °C 56.7 °F /  13.7 °C 30in /  1016.1hPa OSO 2.9mph /  4.6km/h 6.9mph /  11.1km/h 91.3% 0in /  0.0mm
09:09 59.4 °F /  15.2 °C 56.5 °F /  13.6 °C 30in /  1016.1hPa OSO 3.7mph /  6km/h 7.4mph /  11.9km/h 90.3% 0in /  0.0mm
09:14 59.5 °F /  15.3 °C 56.5 °F /  13.6 °C 30in /  1016.1hPa SO 4.3mph /  6.9km/h 8.1mph /  13km/h 89.4% 0in /  0.0mm
09:19 59.9 °F /  15.5 °C 56.3 °F /  13.5 °C 30in /  1016.1hPa SO 4.3mph /  6.9km/h 9.2mph /  14.8km/h 88.2% 0in /  0.0mm
09:24 60.3 °F /  15.7 °C 56.3 °F /  13.5 °C 30in /  1016.1hPa SO 4.3mph /  6.9km/h 9mph /  14.5km/h 86.9% 0in /  0.0mm
09:29 60.4 °F /  15.8 °C 56.3 °F /  13.5 °C 30in /  1016.2hPa SO 4.5mph /  7.3km/h 7mph /  11.3km/h 86% 0in /  0.0mm
09:34 60.8 °F /  16 °C 56.3 °F /  13.5 °C 30in /  1016.2hPa SSO 4.7mph /  7.6km/h 8.7mph /  14km/h 85% 0in /  0.0mm
09:39 61.2 °F /  16.2 °C 56.3 °F /  13.5 °C 30in /  1016.2hPa SSO 4.7mph /  7.6km/h 9.2mph /  14.8km/h 84% 0in /  0.0mm
09:44 61.5 °F /  16.4 °C 56.3 °F /  13.5 °C 30in /  1016.2hPa SSO 4.7mph /  7.6km/h 8mph /  12.9km/h 83.2% 0in /  0.0mm
09:49 62.1 °F /  16.7 °C 56.7 °F /  13.7 °C 30in /  1016.1hPa SO 4.5mph /  7.2km/h 7mph /  11.3km/h 82.7% 0in /  0.0mm
09:54 62.4 °F /  16.9 °C 56.8 °F /  13.8 °C 30in /  1016.1hPa SO 4.3mph /  6.9km/h 8.1mph /  13km/h 81.8% 0in /  0.0mm
09:59 62.8 °F /  17.1 °C 56.7 °F /  13.7 °C 30in /  1016.1hPa OSO 4.3mph /  6.9km/h 9.7mph /  15.6km/h 80.3% 0in /  0.0mm
10:04 63 °F /  17.2 °C 56.3 °F /  13.5 °C 30in /  1016.0hPa SO 4.3mph /  6.9km/h 10mph /  16.1km/h 79% 0in /  0.0mm
10:09 63.1 °F /  17.3 °C 56.5 °F /  13.6 °C 30in /  1016.0hPa SSO 4.8mph /  7.8km/h 9mph /  14.5km/h 79% 0in /  0.0mm
10:14 63.7 °F /  17.6 °C 56.5 °F /  13.6 °C 30in /  1016.0hPa SO 5.2mph /  8.4km/h 8.1mph /  13km/h 77.4% 0in /  0.0mm
10:19 63.9 °F /  17.7 °C 56.5 °F /  13.6 °C 30in /  1016.0hPa OSO 4.9mph /  7.9km/h 9.2mph /  14.8km/h 76.8% 0in /  0.0mm
10:24 64.2 °F /  17.9 °C 56.5 °F /  13.6 °C 30in /  1016.0hPa SO 4.7mph /  7.6km/h 9mph /  14.5km/h 75.7% 0in /  0.0mm
10:29 64.8 °F /  18.2 °C 56.5 °F /  13.6 °C 30in /  1016.0hPa SO 4.5mph /  7.2km/h 8mph /  12.9km/h 74.6% 0in /  0.0mm
10:34 65.1 °F /  18.4 °C 56.7 °F /  13.7 °C 30in /  1015.8hPa Sur 4.3mph /  6.9km/h 7mph /  11.3km/h 74% 0in /  0.0mm
10:39 65.7 °F /  18.7 °C 56.7 °F /  13.7 °C 30in /  1015.8hPa Sur 3.9mph /  6.3km/h 6.9mph /  11.1km/h 72.9% 0in /  0.0mm
10:44 66 °F /  18.9 °C 56.7 °F /  13.7 °C 30in /  1015.9hPa SSE 3.6mph /  5.8km/h 7mph /  11.3km/h 72% 0in /  0.0mm
10:49 66.6 °F /  19.2 °C 56.7 °F /  13.7 °C 30in /  1015.9hPa SE 3.3mph /  5.3km/h 7.4mph /  11.9km/h 70.9% 0in /  0.0mm
10:54 66.7 °F /  19.3 °C 56.5 °F /  13.6 °C 30in /  1015.9hPa ESE 3.1mph /  5km/h 7mph /  11.3km/h 69.9% 0in /  0.0mm
10:59 67.3 °F /  19.6 °C 57 °F /  13.9 °C 30in /  1016.0hPa ESE 3.4mph /  5.4km/h 7mph /  11.3km/h 69.7% 0in /  0.0mm
11:04 67.6 °F /  19.8 °C 56.7 °F /  13.7 °C 30in /  1016.0hPa Oeste 3.6mph /  5.8km/h 6mph /  9.7km/h 68.3% 0in /  0.0mm
11:09 67.6 °F /  19.8 °C 56.8 °F /  13.8 °C 30in /  1016.0hPa ONO 3.2mph /  5.2km/h 4mph /  6.4km/h 67.9% 0in /  0.0mm
11:14 68.2 °F /  20.1 °C 56.3 °F /  13.5 °C 30in /  1016.0hPa Oeste 2.9mph /  4.7km/h 5mph /  8km/h 65.9% 0in /  0.0mm
11:19 68.5 °F /  20.3 °C 56.1 °F /  13.4 °C 30in /  1016.0hPa SO 2.4mph /  3.8km/h 5mph /  8km/h 64.3% 0in /  0.0mm
11:24 69.6 °F /  20.9 °C 55.6 °F /  13.1 °C 30in /  1016.0hPa SE 2mph /  3.2km/h 4.6mph /  7.4km/h 61% 0in /  0.0mm
11:29 70.3 °F /  21.3 °C 55.8 °F /  13.2 °C 30in /  1016.0hPa North 2mph /  3.2km/h 5mph /  8km/h 60% 0in /  0.0mm
11:34 70.5 °F /  21.4 °C 55.9 °F /  13.3 °C 30in /  1015.9hPa NO 2mph /  3.2km/h 5mph /  8km/h 59.9% 0in /  0.0mm
11:39 70.7 °F /  21.5 °C 56.1 °F /  13.4 °C 30in /  1015.9hPa NO 2.2mph /  3.6km/h 5.9mph /  9.5km/h 60% 0in /  0.0mm
11:44 71.1 °F /  21.7 °C 56.5 °F /  13.6 °C 30in /  1015.9hPa NE 2.4mph /  3.9km/h 6.9mph /  11.1km/h 60% 0in /  0.0mm
11:49 71.6 °F /  22 °C 57 °F /  13.9 °C 30in /  1015.8hPa Este 2.7mph /  4.3km/h 7mph /  11.3km/h 60% 0in /  0.0mm
11:54 72.1 °F /  22.3 °C 57 °F /  13.9 °C 30in /  1015.8hPa NNE 2.9mph /  4.7km/h 6.9mph /  11.1km/h 59.1% 0in /  0.0mm
11:59 72.3 °F /  22.4 °C 57.2 °F /  14 °C 30in /  1015.8hPa North 3.2mph /  5.2km/h 8.1mph /  13km/h 58.9% 0in /  0.0mm
12:04 72.3 °F /  22.4 °C 57.2 °F /  14 °C 30in /  1015.8hPa NNO 3.6mph /  5.8km/h 8mph /  12.9km/h 59% 0in /  0.0mm
12:09 72.5 °F /  22.5 °C 57 °F /  13.9 °C 30in /  1015.8hPa North 4mph /  6.4km/h 7.4mph /  11.9km/h 58.5% 0in /  0.0mm
12:14 72.7 °F /  22.6 °C 57.2 °F /  14 °C 30in /  1015.8hPa North 4.3mph /  6.9km/h 7.4mph /  11.9km/h 58.2% 0in /  0.0mm
12:19 73.2 °F /  22.9 °C 57.6 °F /  14.2 °C 30in /  1015.8hPa North 4.3mph /  6.9km/h 8.1mph /  13km/h 58% 0in /  0.0mm
12:24 73.6 °F /  23.1 °C 57.4 °F /  14.1 °C 30in /  1015.8hPa North 4.3mph /  6.9km/h 8mph /  12.9km/h 57.1% 0in /  0.0mm
12:29 73.8 °F /  23.2 °C 57.6 °F /  14.2 °C 30in /  1015.8hPa NNE 4.2mph /  6.7km/h 8.5mph /  13.7km/h 56.9% 0in /  0.0mm
12:34 74.1 °F /  23.4 °C 57.6 °F /  14.2 °C 30in /  1015.7hPa NNE 4mph /  6.5km/h 9mph /  14.5km/h 56.6% 0in /  0.0mm
12:39 74.5 °F /  23.6 °C 57.6 °F /  14.2 °C 30in /  1015.7hPa ENE 4mph /  6.5km/h 9mph /  14.5km/h 55.7% 0in /  0.0mm
12:44 74.8 °F /  23.8 °C 57.4 °F /  14.1 °C 30in /  1015.7hPa Este 4mph /  6.5km/h 7mph /  11.3km/h 54.5% 0in /  0.0mm
12:49 75.6 °F /  24.2 °C 56.5 °F /  13.6 °C 30in /  1015.5hPa Este 3.4mph /  5.5km/h 8.1mph /  13km/h 51.7% 0in /  0.0mm
12:54 75.9 °F /  24.4 °C 55.9 °F /  13.3 °C 30in /  1015.5hPa ESE 2.9mph /  4.7km/h 8mph /  12.9km/h 50% 0in /  0.0mm
12:59 76.3 °F /  24.6 °C 56.3 °F /  13.5 °C 30in /  1015.5hPa ENE 3.3mph /  5.3km/h 6.9mph /  11.1km/h 49.9% 0in /  0.0mm
13:00 76.6 °F /  24.8 °C 56.5 °F /  13.6 °C 30in /  1015.3hPa Este 3mph /  4.8km/h 7mph /  11.3km/h 50% 0in /  0.0mm
13:09 76.6 °F /  24.8 °C 55.4 °F /  13 °C 30in /  1015.3hPa ESE 3.8mph /  6.1km/h 8.5mph /  13.7km/h 48.1% 0in /  0.0mm
13:14 76.3 °F /  24.6 °C 55.6 °F /  13.1 °C 30in /  1015.3hPa ESE 4mph /  6.5km/h 9mph /  14.5km/h 48.8% 0in /  0.0mm
13:19 76.5 °F /  24.7 °C 56.1 °F /  13.4 °C 30in /  1015.1hPa NNE 3.4mph /  5.5km/h 7.6mph /  12.2km/h 49.2% 0in /  0.0mm
13:24 76.8 °F /  24.9 °C 56.3 °F /  13.5 °C 30in /  1015.1hPa NE 2.9mph /  4.7km/h 8.1mph /  13km/h 49.1% 0in /  0.0mm
13:29 76.8 °F /  24.9 °C 56.3 °F /  13.5 °C 30in /  1015.1hPa North 3.7mph /  5.9km/h 9.2mph /  14.8km/h 49.1% 0in /  0.0mm
13:34 77.2 °F /  25.1 °C 56.3 °F /  13.5 °C 30in /  1014.8hPa Este 4.3mph /  6.9km/h 9.2mph /  14.8km/h 48.6% 0in /  0.0mm
13:39 77.5 °F /  25.3 °C 56.5 °F /  13.6 °C 30in /  1014.8hPa Este 4.8mph /  7.7km/h 10.4mph /  16.7km/h 48.4% 0in /  0.0mm
13:44 77.7 °F /  25.4 °C 56.3 °F /  13.5 °C 30in /  1014.8hPa NE 5.2mph /  8.4km/h 10mph /  16.1km/h 47.8% 0in /  0.0mm
13:49 77.9 °F /  25.5 °C 56.5 °F /  13.6 °C 30in /  1014.8hPa NNE 4.5mph /  7.3km/h 9.2mph /  14.8km/h 47.9% 0in /  0.0mm
13:54 78.3 °F /  25.7 °C 56.5 °F /  13.6 °C 30in /  1014.8hPa SE 4mph /  6.5km/h 9.2mph /  14.8km/h 47.3% 0in /  0.0mm
13:55 78.3 °F /  25.7 °C 56.5 °F /  13.6 °C 30in /  1014.8hPa ENE 5mph /  8km/h 9mph /  14.5km/h 47% 0in /  0.0mm
14:04 78.3 °F /  25.7 °C 56.3 °F /  13.5 °C 30in /  1014.5hPa ESE 4.7mph /  7.6km/h 9.7mph /  15.6km/h 46.8% 0in /  0.0mm
14:09 78.4 °F /  25.8 °C 56.5 °F /  13.6 °C 30in /  1014.5hPa NNE 4.7mph /  7.6km/h 6.9mph /  11.1km/h 47% 0in /  0.0mm
14:14 78.4 °F /  25.8 °C 56.8 °F /  13.8 °C 30in /  1014.5hPa NNE 4.7mph /  7.6km/h 11.2mph /  18km/h 47.3% 0in /  0.0mm
14:19 79 °F /  26.1 °C 57.6 °F /  14.2 °C 30in /  1014.4hPa Este 5.1mph /  8.2km/h 13.8mph /  22.2km/h 47.8% 0in /  0.0mm
14:24 79.2 °F /  26.2 °C 57.4 °F /  14.1 °C 30in /  1014.4hPa Este 5.4mph /  8.7km/h 14mph /  22.5km/h 47.5% 0in /  0.0mm
14:29 79 °F /  26.1 °C 57.6 °F /  14.2 °C 30in /  1014.4hPa ENE 6.6mph /  10.6km/h 13mph /  20.9km/h 47.9% 0in /  0.0mm
14:34 79.2 °F /  26.2 °C 57.9 °F /  14.4 °C 30in /  1014.2hPa NNE 7.4mph /  11.9km/h 10.4mph /  16.7km/h 48.1% 0in /  0.0mm
14:39 79.3 °F /  26.3 °C 57.9 °F /  14.4 °C 30in /  1014.2hPa Este 5.7mph /  9.2km/h 13mph /  20.9km/h 48% 0in /  0.0mm
14:44 79.5 °F /  26.4 °C 58.1 °F /  14.5 °C 30in /  1014.2hPa Este 4.7mph /  7.6km/h 15mph /  24.1km/h 47.9% 0in /  0.0mm
14:49 79.7 °F /  26.5 °C 58.3 °F /  14.6 °C 29.9in /  1014.0hPa Este 6.3mph /  10.2km/h 15.2mph /  24.5km/h 48% 0in /  0.0mm
14:54 79.7 °F /  26.5 °C 58.3 °F /  14.6 °C 29.9in /  1014.0hPa ENE 7.4mph /  11.9km/h 15mph /  24.1km/h 48% 0in /  0.0mm
14:55 79.7 °F /  26.5 °C 58.3 °F /  14.6 °C 29.9in /  1014.0hPa ENE 7mph /  11.3km/h 14mph /  22.5km/h 48% 0in /  0.0mm
15:04 79.5 °F /  26.4 °C 58.1 °F /  14.5 °C 29.9in /  1014.0hPa Este 8.1mph /  13km/h 15mph /  24.1km/h 48% 0in /  0.0mm
15:09 79.7 °F /  26.5 °C 57.9 °F /  14.4 °C 29.9in /  1014.0hPa Este 8.8mph /  14.1km/h 15mph /  24.1km/h 47.4% 0in /  0.0mm
15:14 79.9 °F /  26.6 °C 58.1 °F /  14.5 °C 29.9in /  1014.0hPa Este 9.2mph /  14.8km/h 14mph /  22.5km/h 47.6% 0in /  0.0mm
15:19 80.1 °F /  26.7 °C 58.6 °F /  14.8 °C 29.9in /  1013.7hPa Este 8.3mph /  13.4km/h 17.3mph /  27.8km/h 47.9% 0in /  0.0mm
15:24 80.2 °F /  26.8 °C 58.6 °F /  14.8 °C 29.9in /  1013.7hPa ESE 7.6mph /  12.2km/h 17.3mph /  27.8km/h 47.7% 0in /  0.0mm
15:29 80.2 °F /  26.8 °C 58.5 °F /  14.7 °C 29.9in /  1013.7hPa ESE 8.9mph /  14.3km/h 17.3mph /  27.8km/h 47.5% 0in /  0.0mm
15:34 80.4 °F /  26.9 °C 58.8 °F /  14.9 °C 29.9in /  1013.6hPa ESE 10mph /  16.1km/h 17mph /  27.4km/h 47.9% 0in /  0.0mm
15:39 80.6 °F /  27 °C 58.8 °F /  14.9 °C 29.9in /  1013.6hPa ESE 9.1mph /  14.6km/h 17.3mph /  27.8km/h 47.6% 0in /  0.0mm
15:44 80.6 °F /  27 °C 58.8 °F /  14.9 °C 29.9in /  1013.6hPa Este 8.5mph /  13.7km/h 17mph /  27.4km/h 47.4% 0in /  0.0mm
15:49 80.6 °F /  27 °C 59 °F /  15 °C 29.9in /  1013.5hPa Este 9.4mph /  15.2km/h 19mph /  30.6km/h 47.8% 0in /  0.0mm
15:54 80.6 °F /  27 °C 58.8 °F /  14.9 °C 29.9in /  1013.5hPa ESE 10.2mph /  16.4km/h 19mph /  30.6km/h 47.5% 0in /  0.0mm
15:55 80.8 °F /  27.1 °C 58.6 °F /  14.8 °C 29.9in /  1013.5hPa Este 10.2mph /  16.4km/h 16mph /  25.7km/h 47% 0in /  0.0mm
16:00 81 °F /  27.2 °C 58.8 °F /  14.9 °C 29.9in /  1013.2hPa ESE 10mph /  16.1km/h 16mph /  25.7km/h 47% 0in /  0.0mm
16:09 80.4 °F /  26.9 °C 59 °F /  15 °C 29.9in /  1013.2hPa Este 11.3mph /  18.2km/h 18.5mph /  29.8km/h 48% 0in /  0.0mm
16:14 80.6 °F /  27 °C 59 °F /  15 °C 29.9in /  1013.2hPa Este 11.8mph /  19km/h 19mph /  30.6km/h 47.8% 0in /  0.0mm
16:19 80.4 °F /  26.9 °C 58.3 °F /  14.6 °C 29.9in /  1013.1hPa Este 12.2mph /  19.7km/h 19mph /  30.6km/h 46.9% 0in /  0.0mm
16:24 80.4 °F /  26.9 °C 58.8 °F /  14.9 °C 29.9in /  1013.1hPa Este 12.5mph /  20.1km/h 19mph /  30.6km/h 47.6% 0in /  0.0mm
16:29 81 °F /  27.2 °C 58.6 °F /  14.8 °C 29.9in /  1013.1hPa ESE 11.5mph /  18.5km/h 16.3mph /  26.2km/h 46.8% 0in /  0.0mm
16:34 81 °F /  27.2 °C 58.1 °F /  14.5 °C 29.9in /  1012.9hPa ESE 10.7mph /  17.2km/h 18.4mph /  29.6km/h 45.8% 0in /  0.0mm
16:39 81.1 °F /  27.3 °C 58.1 °F /  14.5 °C 29.9in /  1012.9hPa ESE 11.1mph /  17.8km/h 19mph /  30.6km/h 45.6% 0in /  0.0mm
16:44 81 °F /  27.2 °C 57.9 °F /  14.4 °C 29.9in /  1012.9hPa ESE 11.4mph /  18.4km/h 20.7mph /  33.3km/h 45.7% 0in /  0.0mm
16:49 80.8 °F /  27.1 °C 58.1 °F /  14.5 °C 29.9in /  1012.9hPa ESE 11.9mph /  19.2km/h 21mph /  33.8km/h 46% 0in /  0.0mm
16:54 80.4 °F /  26.9 °C 57.7 °F /  14.3 °C 29.9in /  1012.9hPa ESE 12.3mph /  19.8km/h 21.3mph /  34.3km/h 46% 0in /  0.0mm
16:55 80.4 °F /  26.9 °C 57.7 °F /  14.3 °C 29.9in /  1012.9hPa ESE 12.4mph /  20km/h 21mph /  33.8km/h 46% 0in /  0.0mm
17:09 80.2 °F /  26.8 °C 57.4 °F /  14.1 °C 29.9in /  1012.8hPa ESE 11mph /  17.7km/h 17.3mph /  27.8km/h 45.5% 0in /  0.0mm
17:14 80.2 °F /  26.8 °C 57.4 °F /  14.1 °C 29.9in /  1012.8hPa ESE 10.7mph /  17.2km/h 18.4mph /  29.6km/h 45.6% 0in /  0.0mm
17:19 80.1 °F /  26.7 °C 57 °F /  13.9 °C 29.9in /  1012.8hPa ESE 10.7mph /  17.2km/h 18mph /  29km/h 45.3% 0in /  0.0mm
17:24 80.1 °F /  26.7 °C 56.8 °F /  13.8 °C 29.9in /  1012.8hPa ESE 10.7mph /  17.2km/h 17.3mph /  27.8km/h 45% 0in /  0.0mm
17:29 80.2 °F /  26.8 °C 56.8 °F /  13.8 °C 29.9in /  1012.8hPa ESE 10.3mph /  16.5km/h 17.5mph /  28.2km/h 44.8% 0in /  0.0mm
17:34 80.1 °F /  26.7 °C 56.3 °F /  13.5 °C 29.9in /  1012.7hPa ESE 10mph /  16.1km/h 17mph /  27.4km/h 44.3% 0in /  0.0mm
17:39 79.9 °F /  26.6 °C 56.5 °F /  13.6 °C 29.9in /  1012.7hPa ESE 10.1mph /  16.3km/h 16.1mph /  25.9km/h 44.8% 0in /  0.0mm
17:44 79.9 °F /  26.6 °C 56.3 °F /  13.5 °C 29.9in /  1012.7hPa ESE 10.2mph /  16.4km/h 16mph /  25.7km/h 44.6% 0in /  0.0mm
17:49 80.1 °F /  26.7 °C 56.1 °F /  13.4 °C 29.9in /  1012.7hPa ESE 9.6mph /  15.4km/h 15.2mph /  24.5km/h 44.1% 0in /  0.0mm
17:54 80.2 °F /  26.8 °C 56.1 °F /  13.4 °C 29.9in /  1012.7hPa ESE 9.2mph /  14.8km/h 15mph /  24.1km/h 43.8% 0in /  0.0mm
17:59 79.9 °F /  26.6 °C 55.9 °F /  13.3 °C 29.9in /  1012.8hPa ESE 8.8mph /  14.1km/h 15mph /  24.1km/h 44% 0in /  0.0mm
18:04 79.9 °F /  26.6 °C 55.8 °F /  13.2 °C 29.9in /  1012.8hPa ESE 8.5mph /  13.7km/h 15mph /  24.1km/h 43.6% 0in /  0.0mm
18:09 80.1 °F /  26.7 °C 55.8 °F /  13.2 °C 29.9in /  1012.8hPa SE 8.6mph /  13.9km/h 14mph /  22.5km/h 43.5% 0in /  0.0mm
18:14 79.9 °F /  26.6 °C 55.9 °F /  13.3 °C 29.9in /  1012.8hPa SE 8.7mph /  14km/h 16.3mph /  26.2km/h 43.9% 0in /  0.0mm
18:19 79.9 °F /  26.6 °C 55.8 °F /  13.2 °C 29.9in /  1012.8hPa SE 9mph /  14.5km/h 16mph /  25.7km/h 43.6% 0in /  0.0mm
18:24 79.7 °F /  26.5 °C 55.8 °F /  13.2 °C 29.9in /  1012.8hPa ESE 9.2mph /  14.8km/h 15mph /  24.1km/h 43.9% 0in /  0.0mm
18:29 80.1 °F /  26.7 °C 56.3 °F /  13.5 °C 29.9in /  1012.8hPa ESE 7.6mph /  12.3km/h 13mph /  20.9km/h 44.2% 0in /  0.0mm
18:34 80.1 °F /  26.7 °C 56.1 °F /  13.4 °C 29.9in /  1012.7hPa ESE 6.4mph /  10.3km/h 10.4mph /  16.7km/h 44% 0in /  0.0mm
18:39 80.1 °F /  26.7 °C 55.8 °F /  13.2 °C 29.9in /  1012.7hPa ESE 6.7mph /  10.8km/h 13mph /  20.9km/h 43.6% 0in /  0.0mm
18:44 79.9 °F /  26.6 °C 56.1 °F /  13.4 °C 29.9in /  1012.9hPa SE 6.9mph /  11.1km/h 13mph /  20.9km/h 44.1% 0in /  0.0mm
18:49 79.5 °F /  26.4 °C 56.1 °F /  13.4 °C 29.9in /  1012.9hPa ESE 7.1mph /  11.5km/h 13.8mph /  22.2km/h 44.7% 0in /  0.0mm
18:54 79.3 °F /  26.3 °C 55.8 °F /  13.2 °C 29.9in /  1012.9hPa SE 7.4mph /  11.9km/h 14mph /  22.5km/h 44.3% 0in /  0.0mm
18:55 79.3 °F /  26.3 °C 55 °F /  12.8 °C 29.9in /  1012.9hPa SSE 7.3mph /  11.8km/h 13mph /  20.9km/h 43.1% 0in /  0.0mm
19:04 79.3 °F /  26.3 °C 54.7 °F /  12.6 °C 29.9in /  1012.9hPa SE 6.2mph /  10km/h 12mph /  19.3km/h 42.7% 0in /  0.0mm
19:09 79.3 °F /  26.3 °C 53.8 °F /  12.1 °C 29.9in /  1012.9hPa Sur 6.2mph /  10km/h 11.5mph /  18.5km/h 41.1% 0in /  0.0mm
19:14 79.3 °F /  26.3 °C 53.6 °F /  12 °C 29.9in /  1012.9hPa Sur 6.2mph /  10km/h 12mph /  19.3km/h 41.1% 0in /  0.0mm
19:19 79.2 °F /  26.2 °C 54.1 °F /  12.3 °C 29.9in /  1012.9hPa Sur 6.2mph /  10km/h 13.8mph /  22.2km/h 42% 0in /  0.0mm
19:24 79 °F /  26.1 °C 53.4 °F /  11.9 °C 29.9in /  1012.9hPa Sur 6.2mph /  10km/h 14mph /  22.5km/h 41.2% 0in /  0.0mm
19:29 78.6 °F /  25.9 °C 52.5 °F /  11.4 °C 29.9in /  1013.0hPa Sur 7mph /  11.3km/h 14mph /  22.5km/h 40.2% 0in /  0.0mm
19:34 78.4 °F /  25.8 °C 52.5 °F /  11.4 °C 29.9in /  1013.0hPa SSE 7.6mph /  12.2km/h 13mph /  20.9km/h 40.9% 0in /  0.0mm
19:39 78.3 °F /  25.7 °C 52.3 °F /  11.3 °C 29.9in /  1013.0hPa SSE 6.9mph /  11.1km/h 12.5mph /  20.1km/h 40.7% 0in /  0.0mm
19:44 78.3 °F /  25.7 °C 52.5 °F /  11.4 °C 29.9in /  1013.0hPa SE 6.4mph /  10.3km/h 15mph /  24.1km/h 41% 0in /  0.0mm
19:49 78.3 °F /  25.7 °C 52.5 °F /  11.4 °C 29.9in /  1013.0hPa SSE 7.4mph /  11.9km/h 15mph /  24.1km/h 41% 0in /  0.0mm
19:54 78.3 °F /  25.7 °C 52.5 °F /  11.4 °C 29.9in /  1013.0hPa Sur 8.1mph /  13km/h 12mph /  19.3km/h 41% 0in /  0.0mm
19:59 78.3 °F /  25.7 °C 52.5 °F /  11.4 °C 29.9in /  1013.2hPa SSE 7mph /  11.2km/h 11.5mph /  18.5km/h 41% 0in /  0.0mm
20:04 77.9 °F /  25.5 °C 52.9 °F /  11.6 °C 29.9in /  1013.2hPa SSE 6.2mph /  10km/h 12mph /  19.3km/h 41.9% 0in /  0.0mm
20:05 77.7 °F /  25.4 °C 52.9 °F /  11.6 °C 29.9in /  1013.2hPa Sur 6.2mph /  9.9km/h 12mph /  19.3km/h 42% 0in /  0.0mm
23:19 65.3 °F /  18.5 °C 59 °F /  15 °C 30in /  1015.5hPa NNE 6.5mph /  10.4km/h 12mph /  19.3km/h 80% 0in /  0.0mm
Murcia-Puente Tocinos, España
Compliments of Weather Underground - 2.25 mb

La estación de MeteoMurcia.com, publica sus datos en los siguientes proyectos:

Weather Underground PWS IMURCIAP2 Meteoclimatic www.awekas.at

W3Counter
Web Analytics